Time;durP1;ratioP1;P1;durP2;ratioP2;P2;SDS_P1;SDS_P2;PMS_P1;PMS_P2;Temp;Humidity;BMP_temperature;BMP_pressure;BME280_temperature;BME280_humidity;BME280_pressure;Samples;Min_cycle;Max_cycle;Signal;HPM_P1;HPM_P2
2022/06/10 00:01:21;;;;;;;;;11.00;10.60;;;;;20.21;72.32;98521.09;5085770;28;8875;-74
2022/06/10 00:03:50;;;;;;;;;12.80;12.20;;;;;20.24;72.50;98518.25;5072391;27;9647;-74
2022/06/10 00:06:19;;;;;;;;;11.20;10.00;;;;;20.06;73.24;98512.22;5150427;27;8851;-74
2022/06/10 00:08:49;;;;;;;;;8.80;8.60;;;;;19.94;73.88;98519.00;5149921;27;8903;-74
2022/06/10 00:11:18;;;;;;;;;10.20;9.00;;;;;19.94;73.89;98516.38;5150556;27;8827;-75
2022/06/10 00:13:48;;;;;;;;;12.00;11.40;;;;;20.09;73.40;98517.31;5150646;27;8847;-74
2022/06/10 00:16:19;;;;;;;;;12.60;12.60;;;;;20.13;73.01;98516.22;5080742;27;8994;-75
2022/06/10 00:18:50;;;;;;;;;11.60;11.60;;;;;20.12;73.32;98521.59;5149923;27;8835;-73
2022/06/10 00:21:20;;;;;;;;;10.20;10.20;;;;;19.98;74.23;98527.63;5149830;27;8863;-73
2022/06/10 00:23:48;;;;;;;;;13.80;11.00;;;;;19.88;74.53;98526.44;5149847;27;8878;-74
2022/06/10 00:26:18;;;;;;;;;14.40;14.00;;;;;20.09;73.51;98525.25;5113342;27;8831;-74
2022/06/10 00:28:48;;;;;;;;;12.00;10.80;;;;;20.24;72.83;98520.88;5150037;27;8847;-74
2022/06/10 00:31:18;;;;;;;;;13.80;12.80;;;;;20.19;73.01;98509.72;5149502;27;8855;-73
2022/06/10 00:33:53;;;;;;;;;11.40;10.40;;;;;19.95;74.65;98517.25;5149780;27;8907;-74
2022/06/10 00:36:22;;;;;;;;;11.20;11.20;;;;;19.86;75.08;98521.25;5149780;27;8942;-73
2022/06/10 00:38:51;;;;;;;;;11.60;11.60;;;;;20.05;74.31;98515.78;5149831;27;8847;-74
2022/06/10 00:41:20;;;;;;;;;11.40;11.40;;;;;20.15;73.68;98518.75;5149662;27;8823;-74
2022/06/10 00:43:49;;;;;;;;;12.20;12.20;;;;;20.23;73.57;98521.84;5149840;27;9616;-75
2022/06/10 00:46:27;;;;;;;;;12.60;12.60;;;;;20.14;73.92;98517.91;5149335;27;8879;-74
2022/06/10 00:49:03;;;;;;;;;12.60;12.60;;;;;20.05;74.69;98516.63;5151034;27;8876;-76
2022/06/10 00:51:37;;;;;;;;;12.00;12.00;;;;;19.90;75.27;98511.34;5153579;27;8835;-74
2022/06/10 00:54:17;;;;;;;;;13.20;13.20;;;;;19.72;76.15;98506.13;5153444;27;8823;-74
2022/06/10 00:56:49;;;;;;;;;12.20;12.20;;;;;19.82;75.88;98512.63;5134967;27;8819;-75
2022/06/10 00:59:22;;;;;;;;;13.00;12.00;;;;;19.80;76.48;98509.19;5153279;27;8934;-73
2022/06/10 01:01:55;;;;;;;;;10.40;10.40;;;;;19.77;76.65;98521.75;5153233;27;8889;-73
2022/06/10 01:04:26;;;;;;;;;12.20;12.20;;;;;19.69;77.17;98522.13;5153451;27;8836;-77
2022/06/10 01:06:55;;;;;;;;;11.00;11.00;;;;;19.69;77.10;98516.84;5153907;27;8836;-76
2022/06/10 01:09:27;;;;;;;;;16.00;13.00;;;;;19.88;75.76;98526.44;5099824;27;9604;-78
2022/06/10 01:12:30;;;;;;;;;10.60;10.60;;;;;20.09;74.75;98525.25;5153735;27;8835;-76
2022/06/10 01:15:11;;;;;;;;;13.00;10.80;;;;;20.21;73.88;98535.16;5153423;27;8974;-76
2022/06/10 01:17:54;;;;;;;;;14.00;13.80;;;;;20.04;74.57;98522.03;5153352;27;8839;-75
2022/06/10 01:20:37;;;;;;;;;12.80;12.80;;;;;19.88;75.52;98526.44;5153305;27;8824;-75
2022/06/10 01:23:46;;;;;;;;;13.60;13.00;;;;;19.93;75.35;98529.72;5152868;27;9670;-73
2022/06/10 01:29:45;;;;;;;;;16.80;16.60;;;;;20.31;73.25;98537.31;5152448;27;8831;-74
2022/06/10 01:32:26;;;;;;;;;14.00;13.80;;;;;20.51;72.35;98534.38;5099178;27;8835;-74
2022/06/10 01:35:07;;;;;;;;;13.00;13.00;;;;;20.69;71.25;98531.63;5152745;27;8831;-74
2022/06/10 01:37:41;;;;;;;;;13.80;13.40;;;;;20.83;70.62;98531.66;5152877;27;8870;-75
2022/06/10 01:40:25;;;;;;;;;15.40;15.40;;;;;20.98;70.09;98536.06;5152565;27;8851;-74
2022/06/10 01:43:04;;;;;;;;;13.60;12.20;;;;;21.09;69.42;98538.06;5152293;27;8927;-73
2022/06/10 01:45:38;;;;;;;;;13.00;12.00;;;;;21.18;69.26;98547.28;5099135;27;8851;-74
2022/06/10 01:48:16;;;;;;;;;15.00;12.40;;;;;21.27;68.63;98540.56;5152579;27;8977;-75
2022/06/10 01:50:50;;;;;;;;;12.80;12.80;;;;;21.30;67.82;98545.66;5152645;27;8828;-75
2022/06/10 01:53:27;;;;;;;;;13.40;13.40;;;;;21.34;67.60;98555.13;5152887;27;8863;-75
2022/06/10 01:56:05;;;;;;;;;16.40;15.20;;;;;21.39;67.32;98553.06;5152666;27;8835;-73
2022/06/10 01:58:40;;;;;;;;;15.00;14.20;;;;;21.41;67.27;98559.97;5152237;27;8859;-75
2022/06/10 02:01:13;;;;;;;;;13.20;13.20;;;;;21.45;67.29;98559.84;5098072;27;8869;-76
2022/06/10 02:03:50;;;;;;;;;14.20;14.00;;;;;21.46;67.42;98559.75;5152394;27;8839;-75
2022/06/10 02:06:24;;;;;;;;;16.00;14.80;;;;;21.46;67.35;98562.41;5101478;27;8835;-74
2022/06/10 02:08:55;;;;;;;;;17.00;17.00;;;;;21.46;67.31;98561.56;5152401;27;8871;-74
2022/06/10 02:11:26;;;;;;;;;14.40;13.80;;;;;21.49;67.11;98556.03;5152264;27;8907;-73
2022/06/10 02:13:59;;;;;;;;;18.00;18.00;;;;;21.51;67.29;98556.78;5133573;27;8898;-76
2022/06/10 02:16:31;;;;;;;;;22.80;19.40;;;;;21.54;66.88;98560.13;5152020;27;8886;-75
2022/06/10 02:19:09;;;;;;;;;17.80;17.40;;;;;21.57;66.64;98565.25;5152217;27;8847;-74
2022/06/10 02:21:43;;;;;;;;;16.20;16.20;;;;;21.56;66.72;98566.19;5082178;27;8919;-75
2022/06/10 02:24:18;;;;;;;;;19.80;19.40;;;;;21.59;66.52;98567.81;5151834;27;8965;-75
2022/06/10 02:26:48;;;;;;;;;18.00;16.00;;;;;21.60;66.55;98573.00;5100325;27;8847;-74
2022/06/10 02:29:20;;;;;;;;;18.20;17.80;;;;;21.64;66.82;98591.38;5098246;27;8863;-76
2022/06/10 02:31:53;;;;;;;;;15.60;15.00;;;;;21.65;66.51;98588.66;5151693;27;8831;-75
2022/06/10 02:34:24;;;;;;;;;12.40;11.80;;;;;21.65;66.85;98586.00;5133148;27;8843;-73
2022/06/10 02:37:00;;;;;;;;;18.80;17.80;;;;;21.65;66.57;98590.47;5098827;27;8839;-73
2022/06/10 02:39:45;;;;;;;;;19.20;17.80;;;;;21.65;66.34;98599.25;5151579;27;8843;-74
2022/06/10 02:42:21;;;;;;;;;18.00;18.00;;;;;21.66;66.20;98597.44;5151587;27;8827;-75
2022/06/10 02:44:57;;;;;;;;;26.00;25.25;;;;;21.68;66.17;98603.53;5097856;27;9001;-74
2022/06/10 02:47:35;;;;;;;;;28.00;28.00;;;;;21.68;65.95;98607.06;5151464;27;8843;-75
2022/06/10 02:50:06;;;;;;;;;24.40;23.80;;;;;21.68;65.84;98604.41;5151221;27;8839;-75
2022/06/10 02:52:37;;;;;;;;;26.25;25.75;;;;;21.69;66.21;98608.75;5123322;27;8848;-75
2022/06/10 02:55:12;;;;;;;;;35.25;32.00;;;;;21.68;66.40;98608.81;5110295;28;8856;-75
2022/06/10 03:03:37;;;;;;;;;44.00;36.75;;;;;21.70;67.15;98630.81;5026327;28;8868;-74
2022/06/10 03:06:16;;;;;;;;;63.75;51.50;;;;;21.71;67.30;98627.22;4978299;28;8863;-75
2022/06/10 03:08:49;;;;;;;;;59.50;47.50;;;;;21.70;67.14;98618.41;5026734;28;8848;-74
2022/06/10 03:11:35;;;;;;;;;45.00;37.75;;;;;21.71;67.06;98633.38;4977538;28;8902;-74
2022/06/10 03:14:11;;;;;;;;;43.25;36.50;;;;;21.71;67.21;98632.53;5026527;28;8860;-74
2022/06/10 03:16:56;;;;;;;;;43.25;37.25;;;;;21.71;66.94;98635.19;5027122;28;8886;-75
2022/06/10 03:19:39;;;;;;;;;55.50;46.00;;;;;21.72;66.74;98639.53;5050617;28;8840;-74
2022/06/10 03:22:19;;;;;;;;;47.50;39.50;;;;;21.71;66.93;98641.34;5066207;28;8959;-74
2022/06/10 03:24:59;;;;;;;;;32.50;31.00;;;;;21.70;66.25;98639.66;5066313;28;8832;-75
2022/06/10 03:27:38;;;;;;;;;40.50;35.75;;;;;21.70;66.42;98654.69;5066354;28;8958;-75
2022/06/10 03:30:11;;;;;;;;;32.25;31.00;;;;;21.66;66.63;98659.34;5066465;28;8860;-75
2022/06/10 03:32:44;;;;;;;;;38.75;33.50;;;;;21.65;66.49;98662.94;5066331;28;8867;-74
2022/06/10 03:35:19;;;;;;;;;49.50;41.75;;;;;21.60;67.21;98655.25;5065987;28;8870;-74
2022/06/10 03:37:50;;;;;;;;;42.75;36.50;;;;;21.59;67.58;98660.66;5066090;28;8856;-76
2022/06/10 03:40:20;;;;;;;;;40.00;34.00;;;;;21.59;67.99;98661.50;5142493;27;8843;-75
2022/06/10 03:42:53;;;;;;;;;37.25;33.25;;;;;21.59;67.95;98663.31;5097992;27;8890;-75
2022/06/10 03:45:29;;;;;;;;;32.75;29.75;;;;;21.65;67.63;98681.53;5150243;27;8843;-74
2022/06/10 03:47:58;;;;;;;;;32.00;30.25;;;;;21.67;67.50;98681.44;5150169;27;8954;-73
2022/06/10 03:50:29;;;;;;;;;55.75;45.25;;;;;21.69;67.59;98677.72;5131837;27;8847;-74
2022/06/10 03:52:59;;;;;;;;;33.75;32.50;;;;;21.71;67.73;98675.84;5150027;27;8819;-75
2022/06/10 03:55:28;;;;;;;;;34.00;31.25;;;;;21.71;68.10;98688.25;5150351;27;8881;-75
2022/06/10 03:57:57;;;;;;;;;46.50;38.25;;;;;21.74;68.03;98688.94;5149925;27;8847;-76
2022/06/10 04:00:28;;;;;;;;;36.00;33.25;;;;;21.75;68.05;98689.78;5150508;27;8843;-74
2022/06/10 04:02:57;;;;;;;;;35.00;32.25;;;;;21.74;68.71;98688.09;5149524;27;8854;-75
2022/06/10 04:05:26;;;;;;;;;32.50;30.75;;;;;21.75;68.85;98693.28;5150296;27;8855;-75
2022/06/10 04:07:55;;;;;;;;;26.50;26.50;;;;;21.80;68.81;98693.03;5131205;27;9630;-75
2022/06/10 04:10:28;;;;;;;;;29.00;29.00;;;;;21.87;68.30;98699.66;5149722;27;10001;-75
2022/06/10 04:12:57;;;;;;;;;32.25;30.50;;;;;21.93;68.09;98693.97;5131353;27;8848;-74
2022/06/10 04:15:27;;;;;;;;;35.25;31.75;;;;;22.02;67.76;98699.66;5149596;27;8827;-75
2022/06/10 04:17:57;;;;;;;;;33.75;31.75;;;;;22.05;67.49;98700.34;5149789;27;8874;-75
2022/06/10 04:20:29;;;;;;;;;33.50;30.25;;;;;22.09;67.63;98693.03;5149950;27;8851;-76
2022/06/10 04:22:58;;;;;;;;;29.25;28.25;;;;;22.16;67.11;98691.72;5149889;27;8831;-74
2022/06/10 04:25:30;;;;;;;;;33.75;30.50;;;;;22.23;66.68;98695.69;5153975;27;8870;-75
2022/06/10 04:27:59;;;;;;;;;25.40;25.40;;;;;22.28;66.41;98692.78;5153749;27;8839;-75
2022/06/10 04:30:30;;;;;;;;;26.75;26.25;;;;;22.35;66.04;98697.63;5153865;27;8863;-74
2022/06/10 04:33:00;;;;;;;;;27.75;27.75;;;;;22.43;65.76;98699.78;5153782;27;8843;-75
2022/06/10 04:35:30;;;;;;;;;29.50;27.75;;;;;22.51;65.50;98694.88;5153406;27;8862;-75
2022/06/10 04:37:58;;;;;;;;;32.50;30.00;;;;;22.53;65.40;98703.59;5153473;27;9620;-75
2022/06/10 04:40:37;;;;;;;;;36.00;32.50;;;;;22.64;65.19;98707.34;5153572;27;8835;-75
2022/06/10 04:43:07;;;;;;;;;29.25;27.25;;;;;22.62;65.17;98701.28;5153275;27;8812;-74
2022/06/10 04:45:40;;;;;;;;;32.00;29.75;;;;;22.71;65.04;98706.84;5153292;27;8836;-76
2022/06/10 04:48:11;;;;;;;;;30.00;27.75;;;;;22.74;64.07;98705.81;5153414;27;8961;-75
2022/06/10 04:50:41;;;;;;;;;30.25;29.75;;;;;22.80;64.35;98713.41;5153542;27;8859;-75
2022/06/10 04:53:10;;;;;;;;;29.00;28.60;;;;;22.85;63.81;98711.28;5153251;27;8869;-75
2022/06/10 04:55:40;;;;;;;;;25.80;24.60;;;;;22.94;63.44;98717.81;5153265;27;8843;-75
2022/06/10 04:58:09;;;;;;;;;32.00;29.50;;;;;23.03;63.47;98724.34;5153086;27;8847;-74
2022/06/10 05:00:41;;;;;;;;;28.00;26.50;;;;;23.13;63.54;98722.81;5152934;27;9649;-75
2022/06/10 05:03:11;;;;;;;;;26.60;26.40;;;;;23.26;63.07;98729.03;5152872;27;9773;-76
2022/06/10 05:05:40;;;;;;;;;27.00;22.75;;;;;23.40;62.63;98724.63;5108625;28;8852;-75
2022/06/10 05:08:11;;;;;;;;;30.50;28.00;;;;;23.54;62.28;98719.22;5075270;28;8925;-74
2022/06/10 05:10:42;;;;;;;;;42.00;36.75;;;;;23.65;62.07;98729.16;5108493;28;8848;-75
2022/06/10 05:13:10;;;;;;;;;28.25;26.75;;;;;23.66;59.79;98723.72;5108946;28;8871;-75
2022/06/10 05:15:39;;;;;;;;;24.40;23.40;;;;;23.79;59.31;98725.59;5108706;28;8835;-76
2022/06/10 05:18:08;;;;;;;;;23.40;21.00;;;;;23.98;58.97;98736.69;5108815;28;8968;-75
2022/06/10 05:20:40;;;;;;;;;19.00;18.40;;;;;24.09;58.04;98738.59;5091967;28;8950;-76
2022/06/10 05:23:11;;;;;;;;;20.20;17.80;;;;;24.22;56.66;98730.63;5108787;28;8998;-76
2022/06/10 05:25:42;;;;;;;;;17.60;17.60;;;;;24.37;55.64;98732.22;5108544;28;8931;-76
2022/06/10 05:28:12;;;;;;;;;17.00;16.20;;;;;24.50;54.83;98737.53;5091206;28;8843;-75
2022/06/10 05:30:42;;;;;;;;;14.00;14.00;;;;;24.54;53.29;98732.84;5108210;28;8970;-73
2022/06/10 05:33:11;;;;;;;;;10.20;9.80;;;;;24.65;52.67;98735.59;5108440;28;8828;-75
2022/06/10 05:35:41;;;;;;;;;12.60;12.60;;;;;24.45;52.97;98735.16;5090913;28;8827;-75
2022/06/10 05:38:09;;;;;;;;;13.20;13.20;;;;;24.60;52.53;98740.41;5108525;28;8847;-76
2022/06/10 05:40:39;;;;;;;;;13.00;13.00;;;;;24.64;51.79;98740.06;5107971;28;8969;-76
2022/06/10 05:43:09;;;;;;;;;10.80;10.80;;;;;24.48;51.63;98739.41;5126400;27;8867;-76
2022/06/10 05:45:41;;;;;;;;;11.00;11.00;;;;;24.43;51.59;98745.09;5151575;27;8843;-75
2022/06/10 05:48:11;;;;;;;;;12.00;12.00;;;;;24.46;51.67;98742.22;5151913;27;8830;-75
2022/06/10 05:50:43;;;;;;;;;12.00;11.40;;;;;24.61;51.10;98747.44;5152018;27;8850;-76
2022/06/10 05:53:15;;;;;;;;;12.00;10.40;;;;;24.63;50.79;98754.38;5151799;27;8816;-75
2022/06/10 05:55:44;;;;;;;;;11.80;11.80;;;;;24.68;50.50;98757.56;5151541;27;8883;-76
2022/06/10 05:58:14;;;;;;;;;12.80;12.80;;;;;24.67;50.40;98763.03;5151830;27;8843;-75
2022/06/10 06:00:43;;;;;;;;;17.00;13.20;;;;;24.74;50.49;98766.09;5151570;27;8843;-74
2022/06/10 06:03:11;;;;;;;;;14.20;13.60;;;;;24.80;50.41;98763.84;5151590;27;8851;-75
2022/06/10 06:05:41;;;;;;;;;12.80;12.80;;;;;24.84;49.98;98767.13;5151618;27;8840;-74
2022/06/10 06:08:11;;;;;;;;;14.40;14.40;;;;;24.99;50.01;98763.38;5133249;27;8965;-76
2022/06/10 06:10:39;;;;;;;;;11.00;11.00;;;;;25.00;49.55;98766.88;5151811;27;8859;-77
2022/06/10 06:13:10;;;;;;;;;16.00;15.20;;;;;24.92;49.47;98777.25;5151756;27;8946;-75
2022/06/10 06:15:40;;;;;;;;;14.20;12.60;;;;;24.87;49.31;98777.56;5151296;27;8868;-75
2022/06/10 06:18:10;;;;;;;;;12.60;11.60;;;;;25.01;49.27;98772.09;5152076;27;8851;-75
2022/06/10 06:20:38;;;;;;;;;15.00;13.00;;;;;25.01;48.83;98780.09;5151656;27;8843;-75
2022/06/10 06:23:08;;;;;;;;;14.40;14.40;;;;;25.19;48.80;98782.41;5099183;27;8877;-75
2022/06/10 06:25:37;;;;;;;;;13.60;13.20;;;;;25.32;48.97;98783.22;5151873;27;8851;-74
2022/06/10 06:28:07;;;;;;;;;15.00;13.80;;;;;25.53;48.61;98785.28;5152083;27;8827;-76
2022/06/10 06:30:37;;;;;;;;;15.60;13.80;;;;;25.70;48.11;98779.50;5098231;27;8873;-75
2022/06/10 06:33:09;;;;;;;;;11.00;10.20;;;;;25.83;47.63;98784.78;5097889;27;8866;-75
2022/06/10 06:35:40;;;;;;;;;13.20;12.60;;;;;25.57;47.24;98797.44;5151762;27;8981;-74
2022/06/10 06:38:10;;;;;;;;;11.40;11.40;;;;;25.57;47.17;98795.59;5151182;27;8839;-74
2022/06/10 06:40:39;;;;;;;;;13.20;13.00;;;;;25.68;47.41;98795.66;5151950;27;8835;-76
2022/06/10 06:43:08;;;;;;;;;13.40;13.40;;;;;25.71;47.55;98793.72;5098292;27;8835;-76
2022/06/10 06:45:38;;;;;;;;;11.00;11.00;;;;;25.82;47.23;98799.97;5098466;27;8840;-76
2022/06/10 06:48:10;;;;;;;;;11.40;11.40;;;;;25.89;46.58;98797.66;5150683;27;8881;-75
2022/06/10 06:50:43;;;;;;;;;13.40;13.40;;;;;25.84;46.58;98791.81;5099090;27;8843;-75
2022/06/10 06:53:12;;;;;;;;;15.40;14.00;;;;;25.96;46.80;98798.09;5150571;27;8869;-76
2022/06/10 06:55:42;;;;;;;;;13.40;12.00;;;;;25.95;46.56;98797.22;5150980;27;8907;-74
2022/06/10 06:58:14;;;;;;;;;11.20;10.80;;;;;25.99;46.72;98804.06;5114197;27;8869;-75
2022/06/10 07:00:47;;;;;;;;;12.00;12.00;;;;;25.96;46.47;98800.78;5097190;27;8858;-77
2022/06/10 07:03:17;;;;;;;;;11.00;10.00;;;;;26.02;46.41;98797.63;5097159;27;8955;-76
2022/06/10 07:05:46;;;;;;;;;6.40;6.40;;;;;26.06;45.95;98799.09;5151244;27;8891;-75
2022/06/10 07:08:14;;;;;;;;;11.20;11.20;;;;;26.12;46.24;98803.09;5114140;27;8874;-75
2022/06/10 07:10:43;;;;;;;;;10.80;10.80;;;;;25.96;46.07;98801.63;5098215;27;8875;-76
2022/06/10 07:13:12;;;;;;;;;10.60;9.60;;;;;25.88;46.03;98799.50;5097288;27;8935;-76
2022/06/10 07:15:43;;;;;;;;;11.80;11.60;;;;;25.92;45.89;98801.94;5150671;27;8831;-76
2022/06/10 07:18:11;;;;;;;;;10.80;10.80;;;;;25.93;46.21;98809.84;5151033;27;8835;-75
2022/06/10 07:20:42;;;;;;;;;10.80;10.60;;;;;26.04;46.00;98817.06;5151061;27;8839;-75
2022/06/10 07:23:11;;;;;;;;;12.80;12.80;;;;;26.21;45.18;98815.78;5150538;27;8878;-74
2022/06/10 07:25:40;;;;;;;;;11.80;11.80;;;;;26.28;45.11;98825.03;5150149;27;8843;-75
2022/06/10 07:28:08;;;;;;;;;12.20;12.00;;;;;26.35;45.21;98822.72;5149964;27;8870;-76
2022/06/10 07:30:37;;;;;;;;;11.00;11.00;;;;;26.33;44.48;98827.34;5150122;27;8980;-75
2022/06/10 07:33:06;;;;;;;;;10.20;10.00;;;;;26.14;44.90;98827.91;5149903;27;8861;-74
2022/06/10 07:35:36;;;;;;;;;10.80;10.00;;;;;26.26;45.73;98822.47;5150077;27;8998;-76
2022/06/10 07:38:12;;;;;;;;;12.00;12.00;;;;;26.21;45.24;98829.13;5149926;27;8847;-75
2022/06/10 07:43:42;;;;;;;;;11.40;11.40;;;;;26.31;44.68;98823.94;5149865;27;8932;-75
2022/06/10 07:46:13;;;;;;;;;11.80;11.80;;;;;26.36;44.75;98829.78;5149908;27;8827;-75
2022/06/10 07:48:42;;;;;;;;;12.80;12.00;;;;;26.47;45.12;98818.25;5149971;27;8847;-76
2022/06/10 07:51:10;;;;;;;;;10.80;10.80;;;;;26.57;44.86;98833.44;5150066;27;9572;-75
2022/06/10 07:53:41;;;;;;;;;13.60;12.60;;;;;26.62;44.59;98827.78;5149561;27;8851;-75
2022/06/10 07:56:13;;;;;;;;;13.40;13.40;;;;;26.70;44.12;98833.38;5096947;27;8847;-76
2022/06/10 07:58:43;;;;;;;;;10.60;8.20;;;;;26.75;43.78;98836.53;5150952;27;8878;-75
2022/06/10 08:01:12;;;;;;;;;12.00;10.80;;;;;26.83;43.51;98847.47;5090726;27;8895;-76
2022/06/10 08:03:47;;;;;;;;;10.20;10.20;;;;;26.78;42.97;98840.78;5096532;27;8861;-76
2022/06/10 08:06:17;;;;;;;;;8.80;8.80;;;;;27.00;42.95;98839.94;5133266;27;8829;-76
2022/06/10 08:08:47;;;;;;;;;13.00;12.00;;;;;26.96;42.88;98836.66;5114748;27;8857;-75
2022/06/10 08:11:16;;;;;;;;;10.40;10.40;;;;;27.26;42.29;98837.00;5133238;27;8829;-74
2022/06/10 08:13:44;;;;;;;;;10.60;10.00;;;;;27.21;42.47;98848.91;5132726;27;8908;-75
2022/06/10 08:16:13;;;;;;;;;10.60;10.60;;;;;27.14;42.44;98845.03;5132654;27;8861;-76
2022/06/10 08:18:42;;;;;;;;;11.20;10.80;;;;;27.15;42.65;98845.91;5133031;27;8984;-75
2022/06/10 08:24:06;;;;;;;;;14.40;11.40;;;;;27.26;42.26;98837.88;5054864;27;8869;-76
2022/06/10 08:26:36;;;;;;;;;11.20;10.80;;;;;27.50;42.18;98842.19;5133327;27;8844;-75
2022/06/10 08:29:05;;;;;;;;;10.40;10.40;;;;;27.70;41.17;98843.25;5133050;27;8875;-76
2022/06/10 08:31:34;;;;;;;;;11.00;10.00;;;;;27.89;40.70;98839.91;5150908;27;8857;-76
2022/06/10 08:34:05;;;;;;;;;9.60;9.60;;;;;27.91;40.61;98846.84;5153988;27;8831;-75
2022/06/10 08:36:34;;;;;;;;;12.60;11.40;;;;;27.98;40.06;98840.00;5154012;27;8965;-76
2022/06/10 08:39:02;;;;;;;;;13.00;12.60;;;;;28.17;39.65;98843.81;5153535;27;8974;-75
2022/06/10 08:41:42;;;;;;;;;11.00;11.00;;;;;28.27;39.84;98843.88;5153100;27;8843;-77
2022/06/10 08:44:29;;;;;;;;;12.00;12.00;;;;;28.21;40.24;98845.25;5099707;27;8839;-75
2022/06/10 08:47:35;;;;;;;;;11.60;11.60;;;;;28.41;39.83;98856.09;5100138;27;8847;-75
2022/06/10 08:50:15;;;;;;;;;12.40;12.40;;;;;28.58;39.70;98859.06;5153433;27;8865;-75
2022/06/10 08:52:53;;;;;;;;;15.80;15.00;;;;;28.78;39.30;98857.31;5135209;27;8831;-76
2022/06/10 08:55:41;;;;;;;;;11.80;11.80;;;;;28.95;38.67;98858.53;5134960;27;8863;-74
2022/06/10 08:58:20;;;;;;;;;13.00;13.00;;;;;29.03;38.62;98860.53;5153795;27;8831;-74
2022/06/10 09:01:01;;;;;;;;;13.20;13.00;;;;;29.04;38.40;98856.03;5153535;27;8835;-76
2022/06/10 09:03:37;;;;;;;;;13.20;13.20;;;;;29.16;38.32;98858.50;5116465;27;8855;-75
2022/06/10 09:06:14;;;;;;;;;14.00;11.40;;;;;29.28;38.56;98861.06;5100932;27;8865;-75
2022/06/10 09:08:45;;;;;;;;;12.20;12.20;;;;;29.45;37.82;98862.25;5153202;27;8835;-75
2022/06/10 09:11:26;;;;;;;;;10.40;10.40;;;;;29.64;37.47;98864.13;5152725;27;8863;-75
2022/06/10 09:14:02;;;;;;;;;15.80;14.60;;;;;29.62;37.14;98858.91;5153205;27;8839;-77
2022/06/10 09:16:35;;;;;;;;;16.20;15.00;;;;;28.73;38.64;98862.25;5152881;27;8908;-76
2022/06/10 09:19:13;;;;;;;;;14.20;14.00;;;;;28.60;39.45;98871.47;5153343;27;8827;-75
2022/06/10 09:21:47;;;;;;;;;14.80;13.60;;;;;28.92;38.32;98868.69;5152959;27;8839;-75
2022/06/10 09:24:21;;;;;;;;;18.20;18.20;;;;;29.05;38.59;98860.41;5152233;27;8918;-75
2022/06/10 09:26:56;;;;;;;;;14.60;14.60;;;;;29.12;37.84;98859.72;5152996;27;8843;-76
2022/06/10 09:29:26;;;;;;;;;15.20;14.40;;;;;29.26;37.46;98853.16;5153018;27;8866;-76
2022/06/10 09:32:08;;;;;;;;;16.00;15.80;;;;;29.52;37.78;98853.50;5153061;27;9666;-75
2022/06/10 09:34:49;;;;;;;;;15.40;14.40;;;;;29.57;36.99;98858.47;5152511;27;8859;-76
2022/06/10 09:37:26;;;;;;;;;15.60;15.60;;;;;28.96;37.92;98851.31;5134034;27;8851;-75
2022/06/10 09:43:16;;;;;;;;;18.25;18.25;;;;;29.39;37.53;98865.50;5152403;27;8855;-76
2022/06/10 09:45:51;;;;;;;;;18.50;18.50;;;;;29.38;37.91;98853.91;5151786;27;8854;-76
2022/06/10 09:48:35;;;;;;;;;20.25;20.25;;;;;29.50;38.01;98860.84;5115249;27;9069;-76
2022/06/10 09:51:13;;;;;;;;;22.00;20.50;;;;;29.43;37.37;98857.00;5151447;27;8831;-75
2022/06/10 09:53:59;;;;;;;;;23.50;21.00;;;;;29.54;37.60;98859.56;5151513;27;8882;-75
2022/06/10 09:56:54;;;;;;;;;23.75;22.75;;;;;29.74;37.61;98856.97;5151557;27;8835;-76
2022/06/10 09:59:32;;;;;;;;;21.00;20.50;;;;;27.89;40.47;98864.88;5151236;27;9659;-75
2022/06/10 10:02:21;;;;;;;;;23.00;23.00;;;;;27.74;41.55;98863.44;5151564;27;8862;-75
2022/06/10 10:05:02;;;;;;;;;26.75;25.00;;;;;26.96;43.29;98870.59;5151582;27;8939;-75
2022/06/10 10:07:46;;;;;;;;;18.25;18.25;;;;;27.46;42.56;98873.72;5151355;27;8902;-74
2022/06/10 10:10:25;;;;;;;;;22.25;22.25;;;;;27.69;42.38;98860.28;5151431;27;8827;-75
2022/06/10 10:13:12;;;;;;;;;24.50;23.75;;;;;27.57;42.29;98867.50;5151337;27;8878;-75
2022/06/10 10:15:49;;;;;;;;;25.50;25.50;;;;;27.66;42.08;98866.75;5151488;27;8927;-76
2022/06/10 10:18:35;;;;;;;;;21.50;21.50;;;;;27.94;41.57;98865.34;5151115;27;8855;-76
2022/06/10 10:21:10;;;;;;;;;23.25;22.50;;;;;28.17;41.23;98870.63;5150115;27;9092;-76
2022/06/10 10:23:42;;;;;;;;;26.50;26.50;;;;;28.35;40.67;98868.19;5151777;27;8831;-75
2022/06/10 10:26:21;;;;;;;;;22.75;22.75;;;;;28.50;40.61;98866.03;5151895;27;8839;-75
2022/06/10 10:28:56;;;;;;;;;19.75;19.50;;;;;28.67;39.85;98868.13;5151809;27;8855;-75
2022/06/10 10:31:27;;;;;;;;;26.00;25.00;;;;;28.85;39.68;98857.63;5152328;27;8959;-76
2022/06/10 10:34:02;;;;;;;;;20.00;19.50;;;;;29.11;39.01;98852.66;5108011;28;9037;-77
2022/06/10 10:36:48;;;;;;;;;19.50;18.75;;;;;29.36;39.33;98853.19;5108154;28;8950;-76
2022/06/10 10:39:26;;;;;;;;;19.25;18.00;;;;;29.51;38.71;98857.19;5107162;28;9509;-77
2022/06/10 10:41:58;;;;;;;;;21.00;21.00;;;;;29.70;38.61;98850.13;5107310;28;8939;-78
2022/06/10 10:44:38;;;;;;;;;23.50;22.25;;;;;29.84;38.32;98848.91;5107476;28;8859;-77
2022/06/10 10:47:20;;;;;;;;;20.40;20.00;;;;;29.91;37.90;98848.19;5107243;28;9010;-77
2022/06/10 10:49:54;;;;;;;;;17.00;17.00;;;;;29.93;38.09;98840.81;5106845;28;8887;-75
2022/06/10 10:52:26;;;;;;;;;17.40;17.40;;;;;30.14;38.13;98837.13;5107014;28;8879;-76
2022/06/10 10:54:58;;;;;;;;;17.50;17.25;;;;;30.34;37.71;98832.63;5107125;28;8839;-76
2022/06/10 10:57:31;;;;;;;;;18.00;18.00;;;;;30.00;37.41;98830.38;5106966;28;8848;-76
2022/06/10 11:00:23;;;;;;;;;20.00;19.50;;;;;29.04;40.21;98815.75;5056134;28;8842;-76
2022/06/10 11:02:55;;;;;;;;;16.50;16.50;;;;;29.26;40.74;98826.31;5106183;28;9855;-75
2022/06/10 11:05:35;;;;;;;;;19.25;18.75;;;;;28.18;42.35;98832.09;5133110;27;9611;-77
2022/06/10 11:08:17;;;;;;;;;19.25;19.25;;;;;26.90;45.74;98830.94;5150793;27;8889;-77
2022/06/10 11:11:08;;;;;;;;;24.50;24.50;;;;;26.59;46.69;98836.00;5150985;27;8950;-77
2022/06/10 11:13:57;;;;;;;;;22.50;21.25;;;;;26.50;46.93;98834.88;5131737;27;8869;-77
2022/06/10 11:16:39;;;;;;;;;21.00;19.50;;;;;26.12;47.78;98822.66;5114229;27;8931;-75
2022/06/10 11:19:34;;;;;;;;;24.50;24.50;;;;;26.29;47.89;98821.38;5150738;27;8832;-76
2022/06/10 11:22:27;;;;;;;;;25.00;22.75;;;;;26.36;47.25;98824.44;5066163;28;8878;-76
2022/06/10 11:25:22;;;;;;;;;19.20;19.20;;;;;26.45;46.77;98805.84;5016145;28;9570;-76
2022/06/10 11:28:05;;;;;;;;;15.80;15.80;;;;;27.06;44.93;98796.63;5065867;28;8859;-75
2022/06/10 11:30:41;;;;;;;;;18.60;18.60;;;;;27.65;43.74;98791.88;5065879;28;8876;-75
2022/06/10 11:33:23;;;;;;;;;19.20;19.00;;;;;28.23;42.27;98789.66;5065781;28;8824;-76
2022/06/10 11:36:10;;;;;;;;;18.00;17.80;;;;;28.84;41.50;98793.34;5065649;28;8860;-77
2022/06/10 11:38:50;;;;;;;;;17.20;17.20;;;;;29.41;41.16;98782.91;5065654;28;8887;-75
2022/06/10 11:41:26;;;;;;;;;25.50;23.75;;;;;29.87;39.16;98778.72;5065484;28;8886;-75
2022/06/10 11:44:01;;;;;;;;;17.00;15.00;;;;;29.37;39.61;98781.50;5065776;28;8844;-75
2022/06/10 11:46:36;;;;;;;;;16.60;16.60;;;;;29.31;39.19;98783.75;5065256;28;8859;-76
2022/06/10 11:49:13;;;;;;;;;15.60;15.60;;;;;29.72;38.97;98778.28;5065046;28;8886;-76
2022/06/10 11:51:48;;;;;;;;;11.80;10.80;;;;;30.29;37.49;98781.06;5064947;28;8840;-76
2022/06/10 11:54:29;;;;;;;;;19.50;17.00;;;;;30.61;35.55;98779.84;5065181;28;9710;-75
2022/06/10 12:00:01;;;;;;;;;17.40;15.00;;;;;31.04;35.02;98787.34;5127252;27;8854;-76
2022/06/10 12:02:38;;;;;;;;;19.00;18.20;;;;;31.29;34.58;98782.22;5149250;27;8831;-76
2022/06/10 12:05:19;;;;;;;;;13.00;13.00;;;;;31.52;34.16;98787.19;5149650;27;8823;-75
2022/06/10 12:07:55;;;;;;;;;14.40;14.40;;;;;31.95;33.33;98783.72;5095361;27;8982;-77
2022/06/10 12:10:41;;;;;;;;;14.60;14.60;;;;;32.47;32.97;98782.06;5149595;27;8846;-76
2022/06/10 12:13:12;;;;;;;;;13.40;13.40;;;;;32.71;31.93;98776.81;5149146;27;8831;-75
2022/06/10 12:15:49;;;;;;;;;16.25;16.25;;;;;32.94;30.66;98779.78;5149156;27;8951;-75
2022/06/10 12:18:19;;;;;;;;;13.80;13.80;;;;;33.45;30.38;98770.84;5064012;27;8855;-75
2022/06/10 12:20:50;;;;;;;;;13.00;13.00;;;;;34.04;29.31;98766.13;5130772;27;8831;-75